sensor_id;sensor_type;location;lat;lon;timestamp;P1;durP1;ratioP1;P2;durP2;ratioP2
10882;SDS011;5494;51.796;10.952;2023-01-20T00:01:39;9.05;;;4.93;;
10882;SDS011;5494;51.796;10.952;2023-01-20T00:04:11;14.02;;;6.72;;
10882;SDS011;5494;51.796;10.952;2023-01-20T00:06:40;10.23;;;5.25;;
10882;SDS011;5494;51.796;10.952;2023-01-20T00:09:11;10.52;;;5.15;;
10882;SDS011;5494;51.796;10.952;2023-01-20T00:11:41;10.85;;;5.07;;
10882;SDS011;5494;51.796;10.952;2023-01-20T00:14:10;11.98;;;5.38;;
10882;SDS011;5494;51.796;10.952;2023-01-20T00:16:38;11.40;;;4.80;;
10882;SDS011;5494;51.796;10.952;2023-01-20T00:19:08;14.80;;;5.82;;
10882;SDS011;5494;51.796;10.952;2023-01-20T00:21:38;9.60;;;4.88;;
10882;SDS011;5494;51.796;10.952;2023-01-20T00:24:06;12.02;;;4.68;;
10882;SDS011;5494;51.796;10.952;2023-01-20T00:26:34;8.63;;;4.25;;
10882;SDS011;5494;51.796;10.952;2023-01-20T00:29:02;11.50;;;4.50;;
10882;SDS011;5494;51.796;10.952;2023-01-20T00:31:30;9.07;;;4.65;;
10882;SDS011;5494;51.796;10.952;2023-01-20T00:33:59;8.50;;;4.22;;
10882;SDS011;5494;51.796;10.952;2023-01-20T00:36:30;8.32;;;4.15;;
10882;SDS011;5494;51.796;10.952;2023-01-20T00:38:59;10.27;;;4.78;;
10882;SDS011;5494;51.796;10.952;2023-01-20T00:41:28;7.60;;;3.92;;
10882;SDS011;5494;51.796;10.952;2023-01-20T00:43:56;6.70;;;4.40;;
10882;SDS011;5494;51.796;10.952;2023-01-20T00:46:24;7.38;;;3.78;;
10882;SDS011;5494;51.796;10.952;2023-01-20T00:48:53;13.18;;;4.85;;
10882;SDS011;5494;51.796;10.952;2023-01-20T00:51:21;9.45;;;4.82;;
10882;SDS011;5494;51.796;10.952;2023-01-20T00:53:50;14.18;;;5.72;;
10882;SDS011;5494;51.796;10.952;2023-01-20T00:56:19;9.07;;;4.57;;
10882;SDS011;5494;51.796;10.952;2023-01-20T00:58:47;9.95;;;4.55;;
10882;SDS011;5494;51.796;10.952;2023-01-20T01:01:14;11.07;;;5.20;;
10882;SDS011;5494;51.796;10.952;2023-01-20T01:03:43;8.18;;;5.10;;
10882;SDS011;5494;51.796;10.952;2023-01-20T01:06:11;11.98;;;6.10;;
10882;SDS011;5494;51.796;10.952;2023-01-20T01:08:42;11.20;;;5.50;;
10882;SDS011;5494;51.796;10.952;2023-01-20T01:11:12;15.60;;;5.65;;
10882;SDS011;5494;51.796;10.952;2023-01-20T01:13:40;11.18;;;5.13;;
10882;SDS011;5494;51.796;10.952;2023-01-20T01:16:09;8.32;;;5.50;;
10882;SDS011;5494;51.796;10.952;2023-01-20T01:18:39;9.50;;;5.43;;
10882;SDS011;5494;51.796;10.952;2023-01-20T01:21:08;10.25;;;5.05;;
10882;SDS011;5494;51.796;10.952;2023-01-20T01:23:39;7.57;;;4.30;;
10882;SDS011;5494;51.796;10.952;2023-01-20T01:26:07;8.98;;;4.82;;
10882;SDS011;5494;51.796;10.952;2023-01-20T01:28:37;12.25;;;5.07;;
10882;SDS011;5494;51.796;10.952;2023-01-20T01:31:06;9.15;;;5.03;;
10882;SDS011;5494;51.796;10.952;2023-01-20T01:33:35;10.20;;;5.13;;
10882;SDS011;5494;51.796;10.952;2023-01-20T01:36:03;10.65;;;4.95;;
10882;SDS011;5494;51.796;10.952;2023-01-20T01:38:33;8.13;;;4.35;;
10882;SDS011;5494;51.796;10.952;2023-01-20T01:41:01;9.15;;;5.07;;
10882;SDS011;5494;51.796;10.952;2023-01-20T01:43:30;9.30;;;4.30;;
10882;SDS011;5494;51.796;10.952;2023-01-20T01:46:02;13.32;;;5.57;;
10882;SDS011;5494;51.796;10.952;2023-01-20T01:48:32;9.95;;;4.65;;
10882;SDS011;5494;51.796;10.952;2023-01-20T01:51:06;10.98;;;4.78;;
10882;SDS011;5494;51.796;10.952;2023-01-20T01:53:39;7.90;;;4.15;;
10882;SDS011;5494;51.796;10.952;2023-01-20T01:56:12;10.80;;;5.10;;
10882;SDS011;5494;51.796;10.952;2023-01-20T01:58:43;9.05;;;4.70;;
10882;SDS011;5494;51.796;10.952;2023-01-20T02:01:16;8.60;;;4.78;;
10882;SDS011;5494;51.796;10.952;2023-01-20T02:03:46;7.53;;;4.57;;
10882;SDS011;5494;51.796;10.952;2023-01-20T02:06:23;11.98;;;5.03;;
10882;SDS011;5494;51.796;10.952;2023-01-20T02:08:55;7.57;;;4.15;;
10882;SDS011;5494;51.796;10.952;2023-01-20T02:11:25;8.55;;;4.28;;
10882;SDS011;5494;51.796;10.952;2023-01-20T02:13:54;10.40;;;4.43;;
10882;SDS011;5494;51.796;10.952;2023-01-20T02:16:27;9.95;;;4.30;;
10882;SDS011;5494;51.796;10.952;2023-01-20T02:19:13;11.43;;;4.55;;
10882;SDS011;5494;51.796;10.952;2023-01-20T02:22:16;13.07;;;5.35;;
10882;SDS011;5494;51.796;10.952;2023-01-20T02:25:09;10.75;;;4.93;;
10882;SDS011;5494;51.796;10.952;2023-01-20T02:34:35;10.35;;;4.68;;
10882;SDS011;5494;51.796;10.952;2023-01-20T02:37:10;6.57;;;4.00;;
10882;SDS011;5494;51.796;10.952;2023-01-20T02:39:42;9.07;;;4.35;;
10882;SDS011;5494;51.796;10.952;2023-01-20T02:42:26;7.15;;;3.78;;
10882;SDS011;5494;51.796;10.952;2023-01-20T02:45:05;9.50;;;4.43;;
10882;SDS011;5494;51.796;10.952;2023-01-20T02:47:49;6.60;;;3.92;;
10882;SDS011;5494;51.796;10.952;2023-01-20T02:50:24;9.02;;;3.90;;
10882;SDS011;5494;51.796;10.952;2023-01-20T02:53:06;7.85;;;3.63;;
10882;SDS011;5494;51.796;10.952;2023-01-20T02:55:39;8.80;;;4.20;;
10882;SDS011;5494;51.796;10.952;2023-01-20T02:58:13;8.15;;;4.10;;
10882;SDS011;5494;51.796;10.952;2023-01-20T03:00:52;7.43;;;3.80;;
10882;SDS011;5494;51.796;10.952;2023-01-20T03:03:29;6.55;;;3.83;;
10882;SDS011;5494;51.796;10.952;2023-01-20T03:06:04;9.40;;;3.72;;
10882;SDS011;5494;51.796;10.952;2023-01-20T03:08:39;7.68;;;4.00;;
10882;SDS011;5494;51.796;10.952;2023-01-20T03:11:08;5.65;;;3.55;;
10882;SDS011;5494;51.796;10.952;2023-01-20T03:13:36;8.35;;;3.85;;
10882;SDS011;5494;51.796;10.952;2023-01-20T03:16:13;7.65;;;3.70;;
10882;SDS011;5494;51.796;10.952;2023-01-20T03:18:46;9.00;;;4.70;;
10882;SDS011;5494;51.796;10.952;2023-01-20T03:21:16;8.95;;;3.80;;
10882;SDS011;5494;51.796;10.952;2023-01-20T03:23:45;9.30;;;3.97;;
10882;SDS011;5494;51.796;10.952;2023-01-20T03:26:18;10.18;;;4.20;;
10882;SDS011;5494;51.796;10.952;2023-01-20T03:28:49;7.95;;;4.05;;
10882;SDS011;5494;51.796;10.952;2023-01-20T03:31:20;9.75;;;4.18;;
10882;SDS011;5494;51.796;10.952;2023-01-20T03:33:53;10.40;;;4.63;;
10882;SDS011;5494;51.796;10.952;2023-01-20T03:36:25;8.13;;;3.78;;
10882;SDS011;5494;51.796;10.952;2023-01-20T03:38:56;9.15;;;4.07;;
10882;SDS011;5494;51.796;10.952;2023-01-20T03:41:29;6.60;;;3.65;;
10882;SDS011;5494;51.796;10.952;2023-01-20T03:44:08;11.88;;;4.63;;
10882;SDS011;5494;51.796;10.952;2023-01-20T03:46:43;6.97;;;3.40;;
10882;SDS011;5494;51.796;10.952;2023-01-20T03:49:22;7.68;;;3.45;;
10882;SDS011;5494;51.796;10.952;2023-01-20T03:52:00;9.95;;;4.07;;
10882;SDS011;5494;51.796;10.952;2023-01-20T03:54:36;10.65;;;4.30;;
10882;SDS011;5494;51.796;10.952;2023-01-20T03:57:15;7.88;;;3.83;;
10882;SDS011;5494;51.796;10.952;2023-01-20T03:59:49;7.40;;;3.70;;
10882;SDS011;5494;51.796;10.952;2023-01-20T04:02:18;8.52;;;3.70;;
10882;SDS011;5494;51.796;10.952;2023-01-20T04:04:50;6.70;;;4.18;;
10882;SDS011;5494;51.796;10.952;2023-01-20T04:07:20;8.43;;;4.00;;
10882;SDS011;5494;51.796;10.952;2023-01-20T04:09:53;8.98;;;4.00;;
10882;SDS011;5494;51.796;10.952;2023-01-20T04:12:26;8.65;;;4.20;;
10882;SDS011;5494;51.796;10.952;2023-01-20T04:14:55;9.80;;;4.10;;
10882;SDS011;5494;51.796;10.952;2023-01-20T04:17:25;6.10;;;3.78;;
10882;SDS011;5494;51.796;10.952;2023-01-20T04:19:57;7.63;;;3.88;;
10882;SDS011;5494;51.796;10.952;2023-01-20T04:22:33;6.50;;;3.42;;
10882;SDS011;5494;51.796;10.952;2023-01-20T04:25:10;8.77;;;3.90;;
10882;SDS011;5494;51.796;10.952;2023-01-20T04:27:46;9.40;;;3.83;;
10882;SDS011;5494;51.796;10.952;2023-01-20T04:30:14;10.98;;;3.88;;
10882;SDS011;5494;51.796;10.952;2023-01-20T04:32:43;5.80;;;3.92;;
10882;SDS011;5494;51.796;10.952;2023-01-20T04:35:13;7.15;;;3.78;;
10882;SDS011;5494;51.796;10.952;2023-01-20T04:37:44;6.18;;;3.33;;
10882;SDS011;5494;51.796;10.952;2023-01-20T04:40:12;7.05;;;3.80;;
10882;SDS011;5494;51.796;10.952;2023-01-20T04:42:40;8.90;;;4.10;;
10882;SDS011;5494;51.796;10.952;2023-01-20T04:45:08;9.35;;;3.15;;
10882;SDS011;5494;51.796;10.952;2023-01-20T04:47:41;6.93;;;4.30;;
10882;SDS011;5494;51.796;10.952;2023-01-20T04:50:10;8.68;;;4.07;;
10882;SDS011;5494;51.796;10.952;2023-01-20T04:52:41;8.00;;;4.03;;
10882;SDS011;5494;51.796;10.952;2023-01-20T04:55:10;9.63;;;3.85;;
10882;SDS011;5494;51.796;10.952;2023-01-20T04:57:39;10.13;;;4.55;;
10882;SDS011;5494;51.796;10.952;2023-01-20T05:00:07;6.68;;;3.33;;
10882;SDS011;5494;51.796;10.952;2023-01-20T05:02:40;5.30;;;3.30;;
10882;SDS011;5494;51.796;10.952;2023-01-20T05:05:11;6.70;;;4.40;;
10882;SDS011;5494;51.796;10.952;2023-01-20T05:07:40;6.80;;;3.72;;
10882;SDS011;5494;51.796;10.952;2023-01-20T05:10:09;7.90;;;3.70;;
10882;SDS011;5494;51.796;10.952;2023-01-20T05:12:38;7.60;;;3.95;;
10882;SDS011;5494;51.796;10.952;2023-01-20T05:15:07;9.93;;;4.25;;
10882;SDS011;5494;51.796;10.952;2023-01-20T05:17:35;6.72;;;4.22;;
10882;SDS011;5494;51.796;10.952;2023-01-20T05:20:03;8.82;;;4.53;;
10882;SDS011;5494;51.796;10.952;2023-01-20T05:22:33;8.98;;;3.88;;
10882;SDS011;5494;51.796;10.952;2023-01-20T05:25:01;8.60;;;5.20;;
10882;SDS011;5494;51.796;10.952;2023-01-20T05:27:32;9.07;;;4.90;;
10882;SDS011;5494;51.796;10.952;2023-01-20T05:30:01;9.25;;;4.88;;
10882;SDS011;5494;51.796;10.952;2023-01-20T05:32:29;10.05;;;4.57;;
10882;SDS011;5494;51.796;10.952;2023-01-20T05:34:57;9.90;;;4.63;;
10882;SDS011;5494;51.796;10.952;2023-01-20T05:37:25;10.43;;;4.95;;
10882;SDS011;5494;51.796;10.952;2023-01-20T05:39:54;10.40;;;4.80;;
10882;SDS011;5494;51.796;10.952;2023-01-20T05:42:22;9.13;;;5.20;;
10882;SDS011;5494;51.796;10.952;2023-01-20T05:44:50;11.10;;;5.57;;
10882;SDS011;5494;51.796;10.952;2023-01-20T05:47:18;12.73;;;6.35;;
10882;SDS011;5494;51.796;10.952;2023-01-20T05:49:46;11.90;;;5.72;;
10882;SDS011;5494;51.796;10.952;2023-01-20T05:52:14;9.38;;;6.18;;
10882;SDS011;5494;51.796;10.952;2023-01-20T05:54:42;12.73;;;6.00;;
10882;SDS011;5494;51.796;10.952;2023-01-20T05:57:12;11.88;;;5.82;;
10882;SDS011;5494;51.796;10.952;2023-01-20T05:59:43;10.70;;;5.47;;
10882;SDS011;5494;51.796;10.952;2023-01-20T06:02:12;8.48;;;5.07;;
10882;SDS011;5494;51.796;10.952;2023-01-20T06:04:44;13.73;;;5.80;;
10882;SDS011;5494;51.796;10.952;2023-01-20T06:07:12;23.63;;;13.65;;
10882;SDS011;5494;51.796;10.952;2023-01-20T06:09:40;15.85;;;10.18;;
10882;SDS011;5494;51.796;10.952;2023-01-20T06:12:08;9.43;;;5.82;;
10882;SDS011;5494;51.796;10.952;2023-01-20T06:14:38;11.48;;;6.68;;
10882;SDS011;5494;51.796;10.952;2023-01-20T06:17:06;10.30;;;6.95;;
10882;SDS011;5494;51.796;10.952;2023-01-20T06:19:34;10.52;;;6.65;;
10882;SDS011;5494;51.796;10.952;2023-01-20T06:22:02;8.85;;;5.90;;
10882;SDS011;5494;51.796;10.952;2023-01-20T06:24:31;16.15;;;8.88;;
10882;SDS011;5494;51.796;10.952;2023-01-20T06:26:59;16.67;;;9.00;;
10882;SDS011;5494;51.796;10.952;2023-01-20T06:29:26;13.80;;;8.55;;
10882;SDS011;5494;51.796;10.952;2023-01-20T06:31:57;15.45;;;8.05;;
10882;SDS011;5494;51.796;10.952;2023-01-20T06:34:25;12.45;;;7.93;;
10882;SDS011;5494;51.796;10.952;2023-01-20T06:36:53;10.90;;;7.00;;
10882;SDS011;5494;51.796;10.952;2023-01-20T06:39:20;10.15;;;7.47;;
10882;SDS011;5494;51.796;10.952;2023-01-20T06:41:48;11.20;;;7.43;;
10882;SDS011;5494;51.796;10.952;2023-01-20T06:44:17;14.50;;;7.22;;
10882;SDS011;5494;51.796;10.952;2023-01-20T06:46:45;10.73;;;7.28;;
10882;SDS011;5494;51.796;10.952;2023-01-20T06:49:15;10.15;;;7.63;;
10882;SDS011;5494;51.796;10.952;2023-01-20T06:51:43;12.25;;;7.45;;
10882;SDS011;5494;51.796;10.952;2023-01-20T06:54:12;10.38;;;6.22;;
10882;SDS011;5494;51.796;10.952;2023-01-20T06:56:41;14.57;;;8.20;;
10882;SDS011;5494;51.796;10.952;2023-01-20T06:59:09;13.95;;;7.72;;
10882;SDS011;5494;51.796;10.952;2023-01-20T07:01:38;16.02;;;6.80;;
10882;SDS011;5494;51.796;10.952;2023-01-20T07:04:06;13.18;;;7.60;;
10882;SDS011;5494;51.796;10.952;2023-01-20T07:06:41;13.52;;;7.50;;
10882;SDS011;5494;51.796;10.952;2023-01-20T07:09:10;14.55;;;7.38;;
10882;SDS011;5494;51.796;10.952;2023-01-20T07:11:39;17.08;;;8.07;;
10882;SDS011;5494;51.796;10.952;2023-01-20T07:14:07;12.00;;;7.63;;
10882;SDS011;5494;51.796;10.952;2023-01-20T07:16:36;15.15;;;7.20;;
10882;SDS011;5494;51.796;10.952;2023-01-20T07:19:04;13.43;;;7.55;;
10882;SDS011;5494;51.796;10.952;2023-01-20T07:21:32;15.60;;;9.40;;
10882;SDS011;5494;51.796;10.952;2023-01-20T07:24:02;18.42;;;8.25;;
10882;SDS011;5494;51.796;10.952;2023-01-20T07:26:31;12.30;;;7.53;;
10882;SDS011;5494;51.796;10.952;2023-01-20T07:28:59;13.52;;;7.30;;
10882;SDS011;5494;51.796;10.952;2023-01-20T07:31:28;13.63;;;7.88;;
10882;SDS011;5494;51.796;10.952;2023-01-20T07:33:57;15.90;;;7.13;;
10882;SDS011;5494;51.796;10.952;2023-01-20T07:36:25;13.98;;;6.07;;
10882;SDS011;5494;51.796;10.952;2023-01-20T07:38:53;9.90;;;5.20;;
10882;SDS011;5494;51.796;10.952;2023-01-20T07:41:23;8.88;;;4.97;;
10882;SDS011;5494;51.796;10.952;2023-01-20T07:43:51;6.72;;;4.63;;
10882;SDS011;5494;51.796;10.952;2023-01-20T07:46:23;6.43;;;3.58;;
10882;SDS011;5494;51.796;10.952;2023-01-20T07:48:50;6.65;;;3.75;;
10882;SDS011;5494;51.796;10.952;2023-01-20T07:51:18;6.95;;;4.45;;
10882;SDS011;5494;51.796;10.952;2023-01-20T07:53:47;6.63;;;3.80;;
10882;SDS011;5494;51.796;10.952;2023-01-20T07:56:17;10.05;;;4.03;;
10882;SDS011;5494;51.796;10.952;2023-01-20T07:58:49;7.97;;;4.50;;
10882;SDS011;5494;51.796;10.952;2023-01-20T08:01:18;7.60;;;4.50;;
10882;SDS011;5494;51.796;10.952;2023-01-20T08:03:50;7.10;;;4.40;;
10882;SDS011;5494;51.796;10.952;2023-01-20T08:06:19;6.53;;;3.88;;
10882;SDS011;5494;51.796;10.952;2023-01-20T08:08:49;8.00;;;4.78;;
10882;SDS011;5494;51.796;10.952;2023-01-20T08:11:19;7.72;;;4.25;;
10882;SDS011;5494;51.796;10.952;2023-01-20T08:13:49;8.88;;;4.70;;
10882;SDS011;5494;51.796;10.952;2023-01-20T08:16:17;10.30;;;5.00;;
10882;SDS011;5494;51.796;10.952;2023-01-20T08:18:45;12.15;;;5.07;;
10882;SDS011;5494;51.796;10.952;2023-01-20T08:21:18;7.43;;;5.68;;
10882;SDS011;5494;51.796;10.952;2023-01-20T08:23:48;10.27;;;6.00;;
10882;SDS011;5494;51.796;10.952;2023-01-20T08:26:17;11.38;;;6.55;;
10882;SDS011;5494;51.796;10.952;2023-01-20T08:28:46;9.75;;;6.00;;
10882;SDS011;5494;51.796;10.952;2023-01-20T08:31:16;9.30;;;5.97;;
10882;SDS011;5494;51.796;10.952;2023-01-20T08:33:47;8.87;;;4.33;;
10882;SDS011;5494;51.796;10.952;2023-01-20T08:36:20;9.80;;;4.97;;
10882;SDS011;5494;51.796;10.952;2023-01-20T08:38:50;8.17;;;4.53;;
10882;SDS011;5494;51.796;10.952;2023-01-20T08:41:20;15.47;;;8.87;;
10882;SDS011;5494;51.796;10.952;2023-01-20T08:43:51;16.10;;;11.50;;
10882;SDS011;5494;51.796;10.952;2023-01-20T08:46:21;9.60;;;6.50;;
10882;SDS011;5494;51.796;10.952;2023-01-20T08:48:50;7.03;;;4.77;;
10882;SDS011;5494;51.796;10.952;2023-01-20T08:51:20;6.70;;;4.43;;
10882;SDS011;5494;51.796;10.952;2023-01-20T08:53:51;9.17;;;5.00;;
10882;SDS011;5494;51.796;10.952;2023-01-20T08:56:19;7.73;;;5.40;;
10882;SDS011;5494;51.796;10.952;2023-01-20T08:58:48;7.53;;;5.20;;
10882;SDS011;5494;51.796;10.952;2023-01-20T09:01:17;7.33;;;5.37;;
10882;SDS011;5494;51.796;10.952;2023-01-20T09:03:50;11.43;;;5.97;;
10882;SDS011;5494;51.796;10.952;2023-01-20T09:06:30;9.47;;;5.87;;
10882;SDS011;5494;51.796;10.952;2023-01-20T09:09:07;9.10;;;6.30;;
10882;SDS011;5494;51.796;10.952;2023-01-20T09:11:38;8.43;;;5.47;;
10882;SDS011;5494;51.796;10.952;2023-01-20T09:14:09;9.00;;;5.47;;
10882;SDS011;5494;51.796;10.952;2023-01-20T09:16:37;7.03;;;5.53;;
10882;SDS011;5494;51.796;10.952;2023-01-20T09:19:07;8.60;;;5.23;;
10882;SDS011;5494;51.796;10.952;2023-01-20T09:21:35;9.40;;;4.83;;
10882;SDS011;5494;51.796;10.952;2023-01-20T09:24:03;8.10;;;5.17;;
10882;SDS011;5494;51.796;10.952;2023-01-20T09:26:32;8.33;;;5.20;;
10882;SDS011;5494;51.796;10.952;2023-01-20T09:29:05;7.83;;;6.00;;
10882;SDS011;5494;51.796;10.952;2023-01-20T09:31:36;9.13;;;5.83;;
10882;SDS011;5494;51.796;10.952;2023-01-20T09:34:11;6.57;;;5.37;;
10882;SDS011;5494;51.796;10.952;2023-01-20T09:36:45;15.73;;;8.47;;
10882;SDS011;5494;51.796;10.952;2023-01-20T09:39:17;10.93;;;5.93;;
10882;SDS011;5494;51.796;10.952;2023-01-20T09:42:09;8.10;;;5.13;;
10882;SDS011;5494;51.796;10.952;2023-01-20T09:45:14;6.60;;;5.23;;
10882;SDS011;5494;51.796;10.952;2023-01-20T09:47:53;11.30;;;5.63;;
10882;SDS011;5494;51.796;10.952;2023-01-20T09:50:44;10.13;;;6.03;;
10882;SDS011;5494;51.796;10.952;2023-01-20T09:53:40;6.97;;;5.37;;
10882;SDS011;5494;51.796;10.952;2023-01-20T09:56:23;7.93;;;5.20;;
10882;SDS011;5494;51.796;10.952;2023-01-20T09:58:56;9.63;;;5.70;;
10882;SDS011;5494;51.796;10.952;2023-01-20T10:01:34;8.00;;;5.30;;
10882;SDS011;5494;51.796;10.952;2023-01-20T10:04:08;7.07;;;5.37;;
10882;SDS011;5494;51.796;10.952;2023-01-20T10:06:45;7.17;;;4.53;;
10882;SDS011;5494;51.796;10.952;2023-01-20T10:09:18;7.80;;;5.77;;
10882;SDS011;5494;51.796;10.952;2023-01-20T10:11:59;9.50;;;5.77;;
10882;SDS011;5494;51.796;10.952;2023-01-20T10:14:37;7.17;;;4.87;;
10882;SDS011;5494;51.796;10.952;2023-01-20T10:17:11;7.47;;;4.83;;
10882;SDS011;5494;51.796;10.952;2023-01-20T10:19:48;6.83;;;4.77;;
10882;SDS011;5494;51.796;10.952;2023-01-20T10:22:28;8.80;;;4.90;;
10882;SDS011;5494;51.796;10.952;2023-01-20T10:25:03;6.60;;;4.90;;
10882;SDS011;5494;51.796;10.952;2023-01-20T10:27:39;8.47;;;5.30;;
10882;SDS011;5494;51.796;10.952;2023-01-20T10:30:15;19.60;;;12.43;;
10882;SDS011;5494;51.796;10.952;2023-01-20T10:32:46;10.93;;;6.33;;
10882;SDS011;5494;51.796;10.952;2023-01-20T10:35:26;9.83;;;7.27;;
10882;SDS011;5494;51.796;10.952;2023-01-20T10:38:02;8.67;;;6.87;;
10882;SDS011;5494;51.796;10.952;2023-01-20T10:40:37;11.37;;;7.63;;
10882;SDS011;5494;51.796;10.952;2023-01-20T10:43:12;8.80;;;7.70;;
10882;SDS011;5494;51.796;10.952;2023-01-20T10:45:49;7.53;;;5.23;;
10882;SDS011;5494;51.796;10.952;2023-01-20T10:48:41;5.97;;;4.67;;
10882;SDS011;5494;51.796;10.952;2023-01-20T10:51:31;6.07;;;4.23;;
10882;SDS011;5494;51.796;10.952;2023-01-20T10:54:11;9.13;;;4.90;;
10882;SDS011;5494;51.796;10.952;2023-01-20T10:56:55;10.27;;;5.60;;
10882;SDS011;5494;51.796;10.952;2023-01-20T10:59:27;8.13;;;4.93;;
10882;SDS011;5494;51.796;10.952;2023-01-20T11:02:01;8.47;;;5.40;;
10882;SDS011;5494;51.796;10.952;2023-01-20T11:04:42;8.90;;;5.27;;
10882;SDS011;5494;51.796;10.952;2023-01-20T11:07:13;8.27;;;4.87;;
10882;SDS011;5494;51.796;10.952;2023-01-20T11:09:46;8.13;;;5.47;;
10882;SDS011;5494;51.796;10.952;2023-01-20T11:12:15;7.00;;;5.20;;
10882;SDS011;5494;51.796;10.952;2023-01-20T11:14:47;10.70;;;4.57;;
10882;SDS011;5494;51.796;10.952;2023-01-20T11:17:16;6.13;;;4.63;;
10882;SDS011;5494;51.796;10.952;2023-01-20T11:19:47;7.07;;;4.67;;
10882;SDS011;5494;51.796;10.952;2023-01-20T11:22:21;6.33;;;4.80;;
10882;SDS011;5494;51.796;10.952;2023-01-20T11:24:57;6.27;;;4.30;;
10882;SDS011;5494;51.796;10.952;2023-01-20T11:27:30;6.60;;;4.40;;
10882;SDS011;5494;51.796;10.952;2023-01-20T11:30:19;8.77;;;4.93;;
10882;SDS011;5494;51.796;10.952;2023-01-20T11:33:14;8.23;;;4.77;;
10882;SDS011;5494;51.796;10.952;2023-01-20T11:35:56;7.13;;;4.83;;
10882;SDS011;5494;51.796;10.952;2023-01-20T11:38:27;5.67;;;4.07;;
10882;SDS011;5494;51.796;10.952;2023-01-20T11:40:59;6.60;;;4.50;;
10882;SDS011;5494;51.796;10.952;2023-01-20T11:43:28;6.57;;;4.20;;
10882;SDS011;5494;51.796;10.952;2023-01-20T11:51:50;5.60;;;4.37;;
10882;SDS011;5494;51.796;10.952;2023-01-20T11:54:20;7.60;;;4.77;;
10882;SDS011;5494;51.796;10.952;2023-01-20T11:56:53;7.77;;;4.83;;
10882;SDS011;5494;51.796;10.952;2023-01-20T11:59:27;6.40;;;4.07;;
10882;SDS011;5494;51.796;10.952;2023-01-20T12:01:59;8.20;;;4.20;;
10882;SDS011;5494;51.796;10.952;2023-01-20T12:05:00;6.93;;;4.10;;
10882;SDS011;5494;51.796;10.952;2023-01-20T12:07:40;6.90;;;4.37;;
10882;SDS011;5494;51.796;10.952;2023-01-20T12:10:12;8.43;;;4.50;;
10882;SDS011;5494;51.796;10.952;2023-01-20T12:12:48;8.60;;;6.00;;
10882;SDS011;5494;51.796;10.952;2023-01-20T12:15:24;7.70;;;4.50;;
10882;SDS011;5494;51.796;10.952;2023-01-20T12:17:57;8.97;;;4.87;;
10882;SDS011;5494;51.796;10.952;2023-01-20T12:20:30;8.60;;;4.33;;
10882;SDS011;5494;51.796;10.952;2023-01-20T12:23:22;6.00;;;3.80;;
10882;SDS011;5494;51.796;10.952;2023-01-20T12:26:12;6.13;;;4.20;;
10882;SDS011;5494;51.796;10.952;2023-01-20T12:28:54;5.47;;;4.10;;
10882;SDS011;5494;51.796;10.952;2023-01-20T12:31:29;7.27;;;4.03;;
10882;SDS011;5494;51.796;10.952;2023-01-20T12:33:59;9.40;;;5.30;;
10882;SDS011;5494;51.796;10.952;2023-01-20T12:36:39;6.20;;;3.87;;
10882;SDS011;5494;51.796;10.952;2023-01-20T12:39:48;8.93;;;5.00;;
10882;SDS011;5494;51.796;10.952;2023-01-20T12:45:43;6.20;;;4.13;;
10882;SDS011;5494;51.796;10.952;2023-01-20T12:48:28;9.70;;;4.47;;
10882;SDS011;5494;51.796;10.952;2023-01-20T12:51:18;7.33;;;4.67;;
10882;SDS011;5494;51.796;10.952;2023-01-20T12:54:05;6.80;;;4.23;;
10882;SDS011;5494;51.796;10.952;2023-01-20T12:57:15;7.50;;;4.10;;
10882;SDS011;5494;51.796;10.952;2023-01-20T13:00:21;6.90;;;3.23;;
10882;SDS011;5494;51.796;10.952;2023-01-20T13:03:23;6.60;;;3.97;;
10882;SDS011;5494;51.796;10.952;2023-01-20T13:06:36;6.00;;;3.70;;
10882;SDS011;5494;51.796;10.952;2023-01-20T13:09:23;7.13;;;4.23;;
10882;SDS011;5494;51.796;10.952;2023-01-20T13:12:27;6.77;;;4.13;;
10882;SDS011;5494;51.796;10.952;2023-01-20T13:15:16;7.53;;;4.40;;
10882;SDS011;5494;51.796;10.952;2023-01-20T13:18:05;6.80;;;4.17;;
10882;SDS011;5494;51.796;10.952;2023-01-20T13:20:51;8.47;;;5.73;;
10882;SDS011;5494;51.796;10.952;2023-01-20T13:23:23;8.53;;;5.40;;
10882;SDS011;5494;51.796;10.952;2023-01-20T13:25:56;6.37;;;3.70;;
10882;SDS011;5494;51.796;10.952;2023-01-20T13:28:28;6.70;;;4.20;;
10882;SDS011;5494;51.796;10.952;2023-01-20T13:30:57;8.13;;;4.40;;
10882;SDS011;5494;51.796;10.952;2023-01-20T13:33:31;6.27;;;4.47;;
10882;SDS011;5494;51.796;10.952;2023-01-20T13:36:12;10.67;;;5.67;;
10882;SDS011;5494;51.796;10.952;2023-01-20T13:38:43;9.33;;;5.27;;
10882;SDS011;5494;51.796;10.952;2023-01-20T13:41:44;8.57;;;5.80;;
10882;SDS011;5494;51.796;10.952;2023-01-20T13:44:30;10.03;;;6.50;;
10882;SDS011;5494;51.796;10.952;2023-01-20T13:47:01;11.60;;;5.43;;
10882;SDS011;5494;51.796;10.952;2023-01-20T13:49:49;8.37;;;5.17;;
10882;SDS011;5494;51.796;10.952;2023-01-20T13:55:30;5.40;;;3.90;;
10882;SDS011;5494;51.796;10.952;2023-01-20T13:58:18;9.83;;;4.97;;
10882;SDS011;5494;51.796;10.952;2023-01-20T14:00:50;6.73;;;4.43;;
10882;SDS011;5494;51.796;10.952;2023-01-20T14:03:20;7.33;;;4.10;;
10882;SDS011;5494;51.796;10.952;2023-01-20T14:05:55;10.40;;;4.47;;
10882;SDS011;5494;51.796;10.952;2023-01-20T14:08:28;9.43;;;4.67;;
10882;SDS011;5494;51.796;10.952;2023-01-20T14:11:08;7.47;;;4.77;;
10882;SDS011;5494;51.796;10.952;2023-01-20T14:13:39;8.27;;;4.97;;
10882;SDS011;5494;51.796;10.952;2023-01-20T14:16:19;6.17;;;4.50;;
10882;SDS011;5494;51.796;10.952;2023-01-20T14:18:51;8.07;;;5.00;;
10882;SDS011;5494;51.796;10.952;2023-01-20T14:21:23;7.67;;;4.43;;
10882;SDS011;5494;51.796;10.952;2023-01-20T14:23:53;9.33;;;5.07;;
10882;SDS011;5494;51.796;10.952;2023-01-20T14:26:22;9.13;;;5.03;;
10882;SDS011;5494;51.796;10.952;2023-01-20T14:28:56;7.73;;;5.20;;
10882;SDS011;5494;51.796;10.952;2023-01-20T14:31:30;10.30;;;5.63;;
10882;SDS011;5494;51.796;10.952;2023-01-20T14:34:17;8.77;;;6.50;;
10882;SDS011;5494;51.796;10.952;2023-01-20T14:36:51;11.47;;;7.10;;
10882;SDS011;5494;51.796;10.952;2023-01-20T14:39:23;11.32;;;6.55;;
10882;SDS011;5494;51.796;10.952;2023-01-20T14:41:53;13.50;;;6.78;;
10882;SDS011;5494;51.796;10.952;2023-01-20T14:44:24;12.83;;;9.07;;
10882;SDS011;5494;51.796;10.952;2023-01-20T14:46:54;13.73;;;8.30;;
10882;SDS011;5494;51.796;10.952;2023-01-20T14:49:27;12.57;;;8.05;;
10882;SDS011;5494;51.796;10.952;2023-01-20T14:52:02;13.07;;;8.70;;
10882;SDS011;5494;51.796;10.952;2023-01-20T14:54:35;12.45;;;8.65;;
10882;SDS011;5494;51.796;10.952;2023-01-20T15:03:02;14.93;;;8.77;;
10882;SDS011;5494;51.796;10.952;2023-01-20T15:05:39;19.30;;;10.02;;
10882;SDS011;5494;51.796;10.952;2023-01-20T15:08:23;18.52;;;9.63;;
10882;SDS011;5494;51.796;10.952;2023-01-20T15:11:13;16.67;;;10.13;;
10882;SDS011;5494;51.796;10.952;2023-01-20T15:14:05;16.23;;;10.35;;
10882;SDS011;5494;51.796;10.952;2023-01-20T15:16:40;18.70;;;10.88;;
10882;SDS011;5494;51.796;10.952;2023-01-20T15:19:34;21.85;;;11.43;;
10882;SDS011;5494;51.796;10.952;2023-01-20T15:22:15;18.35;;;11.57;;
10882;SDS011;5494;51.796;10.952;2023-01-20T15:24:51;19.55;;;12.25;;
10882;SDS011;5494;51.796;10.952;2023-01-20T15:27:22;20.33;;;11.43;;
10882;SDS011;5494;51.796;10.952;2023-01-20T15:29:58;16.95;;;9.98;;
10882;SDS011;5494;51.796;10.952;2023-01-20T15:32:39;16.17;;;9.93;;
10882;SDS011;5494;51.796;10.952;2023-01-20T15:35:10;16.25;;;10.23;;
10882;SDS011;5494;51.796;10.952;2023-01-20T15:37:40;20.65;;;11.57;;
10882;SDS011;5494;51.796;10.952;2023-01-20T15:40:15;18.02;;;11.05;;
10882;SDS011;5494;51.796;10.952;2023-01-20T15:42:45;20.13;;;10.80;;
10882;SDS011;5494;51.796;10.952;2023-01-20T15:45:15;16.63;;;11.13;;
10882;SDS011;5494;51.796;10.952;2023-01-20T15:47:45;17.08;;;10.93;;